createdAt,value
2023-04-07T00:00:18.212Z,53.93
2023-04-07T00:02:50.782Z,54.04
2023-04-07T00:05:25.923Z,54.26
2023-04-07T00:07:59.174Z,54.54
2023-04-07T00:10:31.102Z,54.52
2023-04-07T00:13:03.743Z,54.14
2023-04-07T00:15:35.517Z,54.31
2023-04-07T00:18:08.049Z,54.61
2023-04-07T00:20:42.803Z,54.94
2023-04-07T00:23:14.675Z,54.49
2023-04-07T00:25:48.423Z,54.46
2023-04-07T00:28:20.651Z,53.98
2023-04-07T00:30:52.418Z,53.81
2023-04-07T00:33:24.231Z,53.53
2023-04-07T00:35:58.020Z,54.09
2023-04-07T00:38:32.517Z,53.31
2023-04-07T00:41:04.584Z,53.82
2023-04-07T00:43:36.314Z,54.00
2023-04-07T00:46:08.123Z,53.80
2023-04-07T00:48:39.886Z,53.44
2023-04-07T00:51:12.311Z,53.98
2023-04-07T00:53:44.688Z,54.14
2023-04-07T00:56:16.557Z,53.45
2023-04-07T00:58:48.498Z,53.17
2023-04-07T01:01:33.275Z,53.40
2023-04-07T01:04:10.168Z,53.55
2023-04-07T01:06:48.451Z,53.57
2023-04-07T01:09:51.261Z,53.39
2023-04-07T01:13:01.537Z,53.83
2023-04-07T01:15:36.201Z,54.21
2023-04-07T01:18:16.356Z,53.42
2023-04-07T01:20:53.481Z,53.99
2023-04-07T01:23:39.730Z,53.68
2023-04-07T01:26:26.704Z,53.74
2023-04-07T01:29:24.781Z,53.34
2023-04-07T01:32:00.488Z,54.29
2023-04-07T01:34:33.008Z,53.99
2023-04-07T01:37:07.074Z,54.17
2023-04-07T01:39:41.018Z,53.99
2023-04-07T01:42:15.896Z,53.76
2023-04-07T01:44:53.519Z,54.14
2023-04-07T01:47:31.299Z,54.51
2023-04-07T01:50:05.441Z,54.50
2023-04-07T01:52:41.385Z,54.46
2023-04-07T01:55:13.683Z,54.56
2023-04-07T01:57:54.947Z,55.42
2023-04-07T02:00:26.877Z,55.48
2023-04-07T02:03:11.883Z,55.15
2023-04-07T02:05:44.717Z,55.83
2023-04-07T02:08:19.647Z,55.72
2023-04-07T02:10:55.261Z,55.79
2023-04-07T02:13:30.116Z,55.88
2023-04-07T02:16:03.065Z,55.93
2023-04-07T02:18:35.603Z,56.51
2023-04-07T02:21:11.566Z,56.66
2023-04-07T02:23:43.270Z,55.97
2023-04-07T02:26:15.240Z,56.00
2023-04-07T02:28:47.022Z,55.94
2023-04-07T02:31:19.562Z,56.46
2023-04-07T02:33:58.312Z,55.76
2023-04-07T02:36:31.335Z,55.90
2023-04-07T02:39:06.691Z,56.45
2023-04-07T02:41:38.482Z,56.49
2023-04-07T02:44:10.337Z,56.33
2023-04-07T02:46:42.761Z,55.42
2023-04-07T02:49:14.542Z,55.49
2023-04-07T02:51:47.379Z,56.14
2023-04-07T02:54:22.177Z,56.08
2023-04-07T02:56:54.406Z,55.90
2023-04-07T02:59:26.368Z,56.01
2023-04-07T03:01:58.277Z,55.96
2023-04-07T03:04:30.618Z,56.02
2023-04-07T03:07:04.337Z,56.42
2023-04-07T03:09:37.601Z,56.34
2023-04-07T03:12:12.266Z,55.69
2023-04-07T03:14:44.040Z,55.70
2023-04-07T03:17:16.428Z,55.86
2023-04-07T03:19:49.423Z,55.85
2023-04-07T03:22:21.319Z,55.60
2023-04-07T03:24:56.553Z,55.83
2023-04-07T03:27:30.215Z,55.88
2023-04-07T03:30:07.342Z,56.19
2023-04-07T03:32:43.323Z,56.33
2023-04-07T03:35:15.845Z,55.84
2023-04-07T03:37:49.612Z,56.59
2023-04-07T03:40:23.263Z,56.85
2023-04-07T03:43:02.131Z,55.74
2023-04-07T03:45:34.856Z,56.72
2023-04-07T03:48:10.702Z,56.20
2023-04-07T03:50:47.400Z,56.28
2023-04-07T03:53:22.796Z,55.96
2023-04-07T03:55:56.520Z,56.25
2023-04-07T03:58:48.025Z,57.10
2023-04-07T04:01:36.841Z,56.19
2023-04-07T04:04:16.935Z,56.66
2023-04-07T04:06:50.536Z,56.31
2023-04-07T04:09:45.883Z,56.24
2023-04-07T04:12:17.852Z,55.67
2023-04-07T04:15:04.499Z,56.11
2023-04-07T04:17:37.026Z,55.74
2023-04-07T04:20:10.415Z,55.34
2023-04-07T04:22:51.555Z,55.35
2023-04-07T04:25:26.990Z,55.54
2023-04-07T04:28:01.520Z,55.40
2023-04-07T04:30:33.298Z,56.35
2023-04-07T04:33:08.966Z,55.73
2023-04-07T04:35:46.743Z,55.56
2023-04-07T04:38:24.301Z,55.69
2023-04-07T04:41:05.992Z,56.30
2023-04-07T04:43:45.240Z,56.67
2023-04-07T04:46:21.905Z,56.47
2023-04-07T04:48:55.215Z,55.92
2023-04-07T04:51:28.578Z,56.03
2023-04-07T04:54:06.952Z,55.47
2023-04-07T04:56:40.067Z,55.98
2023-04-07T04:59:11.811Z,55.69
2023-04-07T05:02:01.143Z,55.46
2023-04-07T05:04:33.191Z,55.53
2023-04-07T05:07:17.965Z,55.01
2023-04-07T05:09:49.952Z,55.09
2023-04-07T05:12:23.711Z,54.74
2023-04-07T05:15:03.058Z,54.40
2023-04-07T05:17:34.973Z,55.02
2023-04-07T05:20:11.002Z,54.48
2023-04-07T05:22:46.192Z,54.66
2023-04-07T05:25:19.561Z,54.25
2023-04-07T05:27:54.612Z,54.77
2023-04-07T05:30:32.764Z,54.33
2023-04-07T05:33:05.706Z,54.55
2023-04-07T05:35:52.791Z,54.76
2023-04-07T05:38:30.630Z,54.66
2023-04-07T05:41:10.743Z,53.95
2023-04-07T05:43:44.812Z,53.67
2023-04-07T05:46:16.613Z,53.55
2023-04-07T05:49:18.866Z,53.32
2023-04-07T05:51:57.196Z,53.08
2023-04-07T05:54:36.398Z,52.85
2023-04-07T05:57:10.699Z,52.38
2023-04-07T05:59:47.438Z,52.88
2023-04-07T06:02:22.471Z,52.48
2023-04-07T06:04:55.398Z,52.70
2023-04-07T06:07:27.520Z,51.88
2023-04-07T06:09:59.185Z,52.03
2023-04-07T06:12:31.176Z,51.73
2023-04-07T06:15:02.969Z,51.11
2023-04-07T06:17:34.724Z,51.49
2023-04-07T06:20:07.369Z,50.92
2023-04-07T06:22:39.535Z,50.97
2023-04-07T06:25:12.639Z,50.88
2023-04-07T06:27:44.360Z,50.50
2023-04-07T06:30:16.220Z,49.67
2023-04-07T06:32:48.003Z,49.42
2023-04-07T06:35:20.074Z,48.88
2023-04-07T06:37:51.999Z,47.83
2023-04-07T06:40:23.762Z,47.19
2023-04-07T06:42:55.636Z,46.65
2023-04-07T06:45:33.524Z,46.87
2023-04-07T06:48:08.563Z,45.97
2023-04-07T06:50:40.412Z,45.62
2023-04-07T06:53:12.131Z,45.72
2023-04-07T06:55:43.860Z,44.47
2023-04-07T06:58:15.774Z,43.65
2023-04-07T07:00:47.548Z,43.59
2023-04-07T07:03:19.717Z,43.36
2023-04-07T07:05:52.808Z,43.48
2023-04-07T07:08:25.811Z,43.13
2023-04-07T07:10:58.638Z,43.05
2023-04-07T07:13:30.567Z,43.53
2023-04-07T07:16:02.336Z,43.27
2023-04-07T07:18:34.573Z,42.23
2023-04-07T07:21:06.299Z,42.13
2023-04-07T07:23:38.364Z,42.05
2023-04-07T07:26:10.876Z,41.80
2023-04-07T07:28:42.744Z,41.76
2023-04-07T07:31:15.719Z,40.83
2023-04-07T07:33:49.211Z,40.94
2023-04-07T07:36:21.116Z,40.13
2023-04-07T07:38:52.877Z,39.95
2023-04-07T07:41:24.674Z,39.87
2023-04-07T07:43:56.559Z,39.66
2023-04-07T07:46:28.456Z,39.34
2023-04-07T07:49:00.324Z,39.61
2023-04-07T07:51:32.466Z,39.34
2023-04-07T07:54:05.613Z,38.88
2023-04-07T07:56:37.345Z,38.78
2023-04-07T07:59:09.164Z,38.86
2023-04-07T08:01:41.041Z,38.59
2023-04-07T08:04:15.999Z,38.44
2023-04-07T08:06:55.022Z,38.53
2023-04-07T08:09:29.305Z,37.78
2023-04-07T08:12:02.440Z,37.72
2023-04-07T08:14:34.244Z,39.10
2023-04-07T08:17:05.986Z,38.81
2023-04-07T08:19:38.239Z,38.73
2023-04-07T08:22:12.760Z,38.13
2023-04-07T08:24:45.512Z,38.16
2023-04-07T08:27:18.675Z,38.64
2023-04-07T08:30:03.665Z,39.15
2023-04-07T08:32:39.316Z,38.30
2023-04-07T08:35:11.857Z,38.64
2023-04-07T08:37:44.370Z,38.01
2023-04-07T08:40:16.870Z,38.07
2023-04-07T08:42:49.364Z,38.25
2023-04-07T08:45:22.285Z,37.95
2023-04-07T08:47:57.280Z,37.53
2023-04-07T08:50:29.294Z,38.21
2023-04-07T08:53:07.435Z,38.02
2023-04-07T08:55:39.642Z,38.57
2023-04-07T08:58:13.359Z,38.31
2023-04-07T09:00:46.812Z,38.47
2023-04-07T09:03:19.957Z,38.36
2023-04-07T09:05:52.372Z,38.04
2023-04-07T09:08:24.393Z,38.15
2023-04-07T09:10:59.546Z,37.92
2023-04-07T09:13:31.713Z,38.44
2023-04-07T09:16:06.740Z,38.02
2023-04-07T09:18:38.552Z,37.87
2023-04-07T09:21:14.511Z,37.46
2023-04-07T09:23:48.080Z,37.46
2023-04-07T09:26:28.436Z,37.99
2023-04-07T09:29:02.931Z,37.45
2023-04-07T09:31:55.428Z,36.84
2023-04-07T09:34:31.628Z,37.17
2023-04-07T09:37:06.172Z,37.15
2023-04-07T09:39:56.377Z,36.92
2023-04-07T09:42:32.376Z,37.42
2023-04-07T09:45:04.347Z,37.07
2023-04-07T09:47:36.146Z,37.32
2023-04-07T09:50:08.195Z,37.08
2023-04-07T09:52:51.824Z,36.35
2023-04-07T09:55:24.393Z,36.17
2023-04-07T09:57:56.462Z,36.65
2023-04-07T10:00:28.344Z,36.22
2023-04-07T10:03:00.893Z,36.28
2023-04-07T10:05:34.443Z,35.42
2023-04-07T10:08:06.866Z,34.81
2023-04-07T10:10:42.008Z,34.84
2023-04-07T10:13:14.112Z,35.21
2023-04-07T10:15:45.898Z,34.86
2023-04-07T10:18:20.443Z,35.58
2023-04-07T10:20:54.029Z,35.69
2023-04-07T10:23:34.621Z,34.80
2023-04-07T10:26:08.203Z,35.07
2023-04-07T10:28:43.631Z,35.50
2023-04-07T10:31:16.338Z,35.37
2023-04-07T10:33:52.865Z,35.50
2023-04-07T10:36:24.683Z,36.01
2023-04-07T10:39:23.390Z,35.35
2023-04-07T10:41:55.941Z,35.49
2023-04-07T10:44:43.026Z,35.24
2023-04-07T10:47:15.057Z,35.65
2023-04-07T10:50:11.992Z,35.09
2023-04-07T10:52:44.724Z,35.20
2023-04-07T10:55:30.160Z,35.13
2023-04-07T10:58:21.080Z,34.95
2023-04-07T11:01:04.878Z,34.40
2023-04-07T11:03:38.751Z,34.89
2023-04-07T11:06:12.406Z,34.38
2023-04-07T11:08:49.480Z,34.42
2023-04-07T11:11:39.581Z,34.66
2023-04-07T11:14:11.668Z,34.17
2023-04-07T11:16:45.145Z,34.03
2023-04-07T11:19:16.804Z,34.71
2023-04-07T11:21:48.729Z,33.94
2023-04-07T11:24:39.289Z,34.05
2023-04-07T11:27:15.011Z,34.44
2023-04-07T11:29:46.729Z,34.58
2023-04-07T11:32:26.409Z,34.03
2023-04-07T11:34:58.361Z,34.21
2023-04-07T11:37:30.097Z,34.89
2023-04-07T11:40:02.075Z,34.25
2023-04-07T11:42:42.121Z,34.09
2023-04-07T11:45:19.444Z,34.03
2023-04-07T11:47:51.232Z,33.35
2023-04-07T11:50:40.074Z,34.31
2023-04-07T11:53:13.815Z,34.44
2023-04-07T11:55:45.589Z,34.45
2023-04-07T11:58:17.607Z,34.15
2023-04-07T12:00:59.418Z,34.23
2023-04-07T12:03:32.289Z,33.84
2023-04-07T12:06:05.198Z,34.72
2023-04-07T12:08:43.745Z,34.18
2023-04-07T12:11:15.519Z,34.19
2023-04-07T12:13:47.431Z,33.64
2023-04-07T12:16:20.394Z,33.83
2023-04-07T12:18:52.700Z,33.60
2023-04-07T12:21:27.657Z,33.70
2023-04-07T12:24:00.587Z,33.92
2023-04-07T12:26:32.329Z,33.85
2023-04-07T12:29:05.625Z,34.26
2023-04-07T12:31:37.429Z,34.08
2023-04-07T12:34:10.304Z,34.06
2023-04-07T12:36:42.017Z,34.20
2023-04-07T12:39:14.201Z,34.05
2023-04-07T12:41:47.589Z,34.45
2023-04-07T12:44:19.516Z,34.39
2023-04-07T12:46:51.358Z,34.68
2023-04-07T12:49:23.085Z,34.56
2023-04-07T12:51:55.820Z,34.89
2023-04-07T12:54:28.721Z,34.82
2023-04-07T12:57:00.411Z,34.51
2023-04-07T12:59:32.211Z,34.70
2023-04-07T13:02:04.164Z,34.85
2023-04-07T13:04:37.040Z,34.52
2023-04-07T13:07:09.895Z,34.86
2023-04-07T13:09:45.253Z,34.87
2023-04-07T13:12:16.953Z,34.82
2023-04-07T13:14:59.071Z,34.74
2023-04-07T13:17:31.604Z,35.11
2023-04-07T13:20:04.873Z,34.88
2023-04-07T13:22:46.095Z,35.20
2023-04-07T13:25:22.510Z,34.91
2023-04-07T13:27:54.276Z,34.79
2023-04-07T13:30:26.422Z,35.13
2023-04-07T13:32:58.326Z,35.31
2023-04-07T13:38:08.633Z,35.31
2023-04-07T13:40:41.408Z,35.34
2023-04-07T13:43:13.569Z,35.39
2023-04-07T13:45:45.624Z,35.71
2023-04-07T13:48:17.427Z,36.08
2023-04-07T13:50:49.583Z,36.27
2023-04-07T13:53:21.820Z,36.70
2023-04-07T13:55:53.539Z,37.10
2023-04-07T13:58:25.407Z,37.28
2023-04-07T14:00:57.338Z,37.42
2023-04-07T14:03:29.314Z,37.74
2023-04-07T14:06:02.269Z,37.76
2023-04-07T14:08:34.111Z,37.90
2023-04-07T14:11:05.885Z,38.29
2023-04-07T14:13:38.281Z,37.65
2023-04-07T14:16:10.041Z,37.50
2023-04-07T14:18:41.899Z,37.65
2023-04-07T14:21:15.797Z,37.56
2023-04-07T14:23:47.476Z,37.78
2023-04-07T14:26:19.391Z,37.56
2023-04-07T14:28:52.137Z,37.67
2023-04-07T14:31:23.894Z,38.08
2023-04-07T14:33:55.862Z,37.61
2023-04-07T14:36:27.988Z,38.11
2023-04-07T14:38:59.878Z,37.80
2023-04-07T14:41:31.720Z,37.73
2023-04-07T14:44:03.459Z,38.45
2023-04-07T14:46:35.179Z,38.36
2023-04-07T14:49:07.591Z,38.34
2023-04-07T14:51:39.569Z,37.97
2023-04-07T14:54:11.305Z,38.04
2023-04-07T14:56:43.215Z,38.59
2023-04-07T14:59:14.913Z,38.51
2023-04-07T15:01:46.918Z,38.57
2023-04-07T15:04:24.521Z,38.25
2023-04-07T15:06:56.413Z,38.26
2023-04-07T15:09:28.111Z,38.32
2023-04-07T15:12:00.851Z,38.50
2023-04-07T15:14:32.748Z,38.56
2023-04-07T15:17:04.504Z,38.73
2023-04-07T15:19:36.265Z,39.15
2023-04-07T15:22:08.019Z,40.05
2023-04-07T15:24:39.872Z,40.99
2023-04-07T15:27:11.581Z,41.71
2023-04-07T15:29:43.334Z,42.92
2023-04-07T15:32:15.115Z,44.02
2023-04-07T15:34:47.441Z,44.29
2023-04-07T15:37:19.407Z,43.80
2023-04-07T15:39:51.343Z,45.06
2023-04-07T15:42:23.078Z,44.67
2023-04-07T15:44:54.768Z,45.69
2023-04-07T15:47:26.626Z,45.20
2023-04-07T15:49:58.332Z,45.54
2023-04-07T15:52:30.862Z,45.23
2023-04-07T15:55:02.588Z,45.41
2023-04-07T15:57:34.510Z,45.17
2023-04-07T16:00:07.082Z,45.12
2023-04-07T16:02:40.382Z,45.13
2023-04-07T16:05:12.629Z,44.82
2023-04-07T16:07:44.376Z,45.23
2023-04-07T16:10:21.974Z,44.40
2023-04-07T16:12:53.774Z,44.77
2023-04-07T16:18:08.551Z,44.10
2023-04-07T16:20:40.610Z,44.75
2023-04-07T16:23:12.656Z,44.82
2023-04-07T16:25:46.060Z,44.50
2023-04-07T16:28:17.774Z,44.18
2023-04-07T16:30:49.453Z,43.81
2023-04-07T16:33:21.377Z,44.62
2023-04-07T16:35:53.118Z,44.54
2023-04-07T16:38:25.092Z,44.01
2023-04-07T16:41:04.562Z,44.57
2023-04-07T16:43:36.848Z,44.09
2023-04-07T16:46:08.601Z,44.17
2023-04-07T16:48:41.394Z,44.03
2023-04-07T16:51:20.439Z,44.53
2023-04-07T16:53:52.150Z,44.43
2023-04-07T16:56:25.351Z,44.54
2023-04-07T16:58:57.118Z,44.93
2023-04-07T17:01:30.137Z,44.99
2023-04-07T17:04:02.200Z,45.23
2023-04-07T17:06:34.063Z,45.07
2023-04-07T17:09:05.839Z,44.62
2023-04-07T17:11:37.744Z,45.04
2023-04-07T17:14:09.466Z,44.88
2023-04-07T17:16:41.238Z,44.25
2023-04-07T17:19:12.993Z,44.56
2023-04-07T17:21:45.053Z,44.72
2023-04-07T17:24:16.894Z,44.71
2023-04-07T17:26:48.686Z,44.41
2023-04-07T17:29:21.491Z,45.22
2023-04-07T17:31:54.677Z,44.59
2023-04-07T17:34:26.653Z,45.43
2023-04-07T17:36:58.384Z,45.62
2023-04-07T17:39:30.318Z,45.44
2023-04-07T17:42:02.030Z,44.81
2023-04-07T17:44:34.239Z,45.58
2023-04-07T17:47:06.071Z,45.33
2023-04-07T17:49:37.788Z,45.95
2023-04-07T17:52:09.562Z,45.35
2023-04-07T17:54:44.274Z,45.83
2023-04-07T17:57:15.989Z,45.48
2023-04-07T17:59:51.032Z,46.08
2023-04-07T18:02:23.006Z,45.65
2023-04-07T18:04:56.293Z,45.84
2023-04-07T18:07:29.343Z,46.71
2023-04-07T18:10:01.498Z,46.91
2023-04-07T18:12:33.812Z,46.32
2023-04-07T18:15:05.968Z,47.23
2023-04-07T18:17:37.992Z,47.10
2023-04-07T18:20:10.281Z,47.19
2023-04-07T18:22:42.422Z,47.63
2023-04-07T18:25:14.392Z,48.37
2023-04-07T18:27:46.283Z,48.39
2023-04-07T18:30:18.110Z,48.80
2023-04-07T18:32:49.987Z,48.80
2023-04-07T18:35:22.165Z,49.30
2023-04-07T18:37:53.982Z,49.39
2023-04-07T18:40:25.869Z,49.90
2023-04-07T18:42:57.614Z,49.72
2023-04-07T18:45:29.415Z,49.58
2023-04-07T18:48:01.537Z,49.85
2023-04-07T18:50:33.620Z,50.53
2023-04-07T18:53:07.247Z,50.06
2023-04-07T18:55:39.028Z,50.35
2023-04-07T18:58:11.202Z,50.53
2023-04-07T19:00:44.083Z,50.70
2023-04-07T19:03:16.581Z,50.52
2023-04-07T19:05:48.618Z,50.51
2023-04-07T19:08:20.442Z,50.31
2023-04-07T19:10:52.287Z,50.65
2023-04-07T19:13:23.997Z,50.36
2023-04-07T19:15:55.791Z,50.41
2023-04-07T19:18:29.204Z,50.41
2023-04-07T19:21:01.571Z,51.08
2023-04-07T19:23:33.471Z,50.91
2023-04-07T19:26:05.548Z,51.25
2023-04-07T19:28:37.399Z,51.20
2023-04-07T19:31:09.421Z,52.40
2023-04-07T19:33:41.497Z,52.82
2023-04-07T19:36:13.217Z,52.82
2023-04-07T19:38:44.973Z,52.96
2023-04-07T19:41:19.520Z,53.49
2023-04-07T19:43:51.626Z,54.40
2023-04-07T19:46:23.440Z,54.91
2023-04-07T19:48:55.333Z,55.34
2023-04-07T19:51:27.637Z,56.06
2023-04-07T19:53:59.355Z,56.12
2023-04-07T19:56:31.321Z,56.87
2023-04-07T19:59:03.135Z,57.15
2023-04-07T20:01:37.922Z,57.47
2023-04-07T20:04:09.734Z,57.80
2023-04-07T20:06:41.521Z,58.19
2023-04-07T20:09:13.260Z,58.16
2023-04-07T20:11:45.340Z,58.32
2023-04-07T20:14:17.070Z,59.04
2023-04-07T20:16:48.902Z,59.29
2023-04-07T20:19:21.065Z,59.97
2023-04-07T20:21:52.905Z,59.64
2023-04-07T20:24:24.624Z,59.46
2023-04-07T20:26:56.436Z,59.69
2023-04-07T20:29:28.176Z,59.06
2023-04-07T20:31:59.866Z,59.63
2023-04-07T20:34:31.625Z,59.25
2023-04-07T20:37:03.428Z,60.17
2023-04-07T20:39:35.104Z,60.17
2023-04-07T20:42:06.777Z,59.84
2023-04-07T20:44:38.670Z,60.66
2023-04-07T20:47:11.537Z,60.69
2023-04-07T20:49:43.837Z,59.52
2023-04-07T20:52:15.582Z,59.82
2023-04-07T20:54:48.329Z,60.10
2023-04-07T20:57:20.075Z,60.46
2023-04-07T20:59:51.794Z,59.88
2023-04-07T21:02:23.588Z,59.72
2023-04-07T21:04:56.391Z,59.92
2023-04-07T21:07:28.088Z,59.70
2023-04-07T21:09:59.905Z,60.28
2023-04-07T21:12:31.752Z,60.15
2023-04-07T21:15:03.583Z,60.21
2023-04-07T21:17:35.470Z,60.65
2023-04-07T21:20:09.265Z,60.06
2023-04-07T21:22:40.968Z,60.30
2023-04-07T21:25:12.840Z,60.16
2023-04-07T21:27:44.547Z,59.91
2023-04-07T21:30:16.707Z,60.07
2023-04-07T21:32:49.352Z,59.95
2023-04-07T21:35:21.313Z,60.32
2023-04-07T21:37:53.048Z,59.84
2023-04-07T21:40:24.744Z,60.16
2023-04-07T21:42:56.759Z,60.61
2023-04-07T21:45:29.663Z,60.61
2023-04-07T21:48:01.755Z,61.25
2023-04-07T21:50:34.015Z,61.41
2023-04-07T21:53:05.809Z,62.16
2023-04-07T21:55:37.510Z,62.69
2023-04-07T21:58:09.842Z,63.06
2023-04-07T22:00:41.826Z,63.57
2023-04-07T22:03:13.905Z,64.19
2023-04-07T22:05:46.504Z,64.60
2023-04-07T22:08:18.226Z,65.34
2023-04-07T22:10:49.903Z,65.36
2023-04-07T22:13:23.099Z,65.58
2023-04-07T22:15:55.731Z,65.55
2023-04-07T22:18:27.857Z,65.96
2023-04-07T22:21:02.782Z,66.36
2023-04-07T22:23:34.477Z,66.68
2023-04-07T22:26:06.177Z,66.92
2023-04-07T22:28:37.877Z,66.48
2023-04-07T22:31:09.604Z,66.87
2023-04-07T22:33:44.074Z,67.28
2023-04-07T22:36:15.835Z,67.53
2023-04-07T22:38:47.849Z,67.23
2023-04-07T22:41:19.628Z,68.29
2023-04-07T22:43:51.358Z,68.06
2023-04-07T22:46:23.130Z,69.01
2023-04-07T22:48:57.531Z,69.30
2023-04-07T22:51:29.422Z,69.37
2023-04-07T22:54:01.153Z,69.41
2023-04-07T22:56:38.638Z,70.05
2023-04-07T22:59:10.851Z,70.28
2023-04-07T23:01:44.672Z,71.52
2023-04-07T23:04:16.989Z,71.47
2023-04-07T23:06:48.737Z,72.20
2023-04-07T23:09:20.736Z,72.31
2023-04-07T23:11:52.525Z,72.00
2023-04-07T23:14:24.306Z,71.53
2023-04-07T23:16:56.318Z,71.64
2023-04-07T23:19:29.384Z,71.95
2023-04-07T23:22:01.175Z,73.03
2023-04-07T23:24:32.886Z,72.53
2023-04-07T23:27:04.626Z,73.06
2023-04-07T23:29:36.405Z,73.41
2023-04-07T23:32:08.194Z,73.41
2023-04-07T23:34:40.873Z,74.18
2023-04-07T23:37:12.540Z,73.39
2023-04-07T23:39:44.216Z,72.84
2023-04-07T23:42:17.029Z,73.89
2023-04-07T23:44:48.760Z,74.20
2023-04-07T23:47:21.452Z,73.66
2023-04-07T23:49:53.472Z,74.73
2023-04-07T23:52:25.795Z,74.61
2023-04-07T23:54:57.573Z,73.88
2023-04-07T23:57:29.713Z,74.21
